Time;durP1;ratioP1;P1;durP2;ratioP2;P2;SDS_P1;SDS_P2;PMS_P1;PMS_P2;Temp;Humidity;BMP_temperature;BMP_pressure;BME280_temperature;BME280_humidity;BME280_pressure;Samples;Min_cycle;Max_cycle;Signal;HPM_P1;HPM_P2
2022/11/11 00:01:02;;;;;;;21.83;7.10;;;12.20;99.90;;;;;;5003462;28;20044;-50
2022/11/11 00:03:28;;;;;;;18.10;7.97;;;11.50;99.90;;;;;;5005738;28;20090;-47
2022/11/11 00:05:59;;;;;;;13.32;6.95;;;11.40;99.90;;;;;;5006953;28;20041;-48
2022/11/11 00:08:24;;;;;;;12.43;6.28;;;11.40;99.90;;;;;;5006141;28;20083;-48
2022/11/11 00:10:50;;;;;;;15.35;7.10;;;11.50;99.90;;;;;;5005069;28;20548;-49
2022/11/11 00:13:16;;;;;;;16.63;7.40;;;11.70;99.90;;;;;;5005584;28;20046;-47
2022/11/11 00:15:42;;;;;;;16.40;7.80;;;11.50;99.90;;;;;;5005299;28;20045;-51
2022/11/11 00:26:26;;;;;;;20.13;8.05;;;11.50;99.90;;;;;;4999776;28;20069;-52
2022/11/11 00:28:52;;;;;;;22.13;7.85;;;12.10;99.90;;;;;;5002218;28;20048;-47
2022/11/11 00:31:18;;;;;;;19.92;8.00;;;11.30;99.90;;;;;;5004720;28;20037;-49
2022/11/11 00:33:43;;;;;;;15.38;8.23;;;11.20;99.90;;;;;;5003075;28;20144;-50
2022/11/11 00:36:09;;;;;;;21.17;9.85;;;12.30;99.90;;;;;;5003252;28;20507;-47
2022/11/11 00:38:44;;;;;;;18.48;8.70;;;11.40;99.90;;;;;;5002274;28;20169;-49
2022/11/11 00:41:18;;;;;;;17.00;8.20;;;11.60;99.90;;;;;;5004088;28;20449;-47
2022/11/11 00:43:45;;;;;;;20.48;8.30;;;12.70;99.90;;;;;;5003208;28;20113;-50
2022/11/11 00:51:41;;;;;;;15.60;8.20;;;13.20;99.90;;;;;;5004463;28;20069;-50
2022/11/11 00:54:07;;;;;;;17.23;8.40;;;12.60;99.90;;;;;;5002686;28;20142;-47
2022/11/11 00:56:35;;;;;;;16.20;7.97;;;11.30;99.90;;;;;;5003243;28;20128;-48
2022/11/11 00:59:02;;;;;;;21.02;8.60;;;11.30;99.90;;;;;;5001031;28;20865;-47
2022/11/11 01:01:28;;;;;;;21.10;8.75;;;11.50;99.90;;;;;;5002843;28;20593;-48
2022/11/11 01:03:53;;;;;;;16.55;7.93;;;11.40;99.90;;;;;;5005534;28;20054;-50
2022/11/11 01:06:19;;;;;;;16.02;8.52;;;11.30;99.90;;;;;;5000709;28;20052;-52
2022/11/11 01:08:45;;;;;;;16.77;8.35;;;11.40;99.90;;;;;;5002318;28;20041;-46
2022/11/11 01:11:16;;;;;;;15.45;8.10;;;11.40;99.90;;;;;;5000812;28;20512;-49
2022/11/11 01:13:42;;;;;;;16.95;8.27;;;12.20;99.90;;;;;;5004761;28;20040;-48
2022/11/11 01:16:12;;;;;;;18.27;8.88;;;11.30;99.90;;;;;;5003479;28;20030;-50
2022/11/11 01:18:37;;;;;;;19.17;8.13;;;11.50;99.90;;;;;;5002327;28;20096;-49
2022/11/11 01:21:18;;;;;;;18.85;8.75;;;11.50;99.90;;;;;;5003693;28;21709;-48
2022/11/11 01:23:47;;;;;;;16.95;8.40;;;11.40;99.90;;;;;;5004697;28;20144;-49
2022/11/11 01:26:23;;;;;;;15.48;8.38;;;11.30;99.90;;;;;;5005086;28;20271;-49
2022/11/11 01:28:50;;;;;;;19.95;9.70;;;11.40;99.90;;;;;;5004548;28;20128;-47
2022/11/11 01:31:17;;;;;;;17.77;8.43;;;11.20;99.90;;;;;;5003880;28;20040;-46
2022/11/11 01:33:43;;;;;;;17.52;8.85;;;11.30;99.90;;;;;;5001435;28;20502;-46
2022/11/11 01:36:12;;;;;;;15.52;8.55;;;12.80;99.90;;;;;;5002134;28;20063;-48
2022/11/11 01:38:38;;;;;;;19.95;8.88;;;11.40;99.90;;;;;;5000838;28;20041;-50
2022/11/11 01:43:50;;;;;;;18.48;9.68;;;11.30;99.90;;;;;;5002964;28;20279;-49
2022/11/11 01:46:25;;;;;;;18.65;8.95;;;11.50;99.90;;;;;;5004626;28;20411;-48
2022/11/11 01:49:19;;;;;;;18.13;8.38;;;11.40;99.90;;;;;;5001969;28;20511;-47
2022/11/11 01:51:51;;;;;;;20.90;9.35;;;11.50;99.90;;;;;;5006170;28;20149;-47
2022/11/11 01:54:21;;;;;;;18.92;9.48;;;11.60;99.90;;;;;;5002762;28;20042;-47
2022/11/11 01:56:55;;;;;;;19.73;9.43;;;11.40;99.90;;;;;;5002149;28;20395;-48
2022/11/11 01:59:21;;;;;;;20.83;9.15;;;11.40;99.90;;;;;;5005551;28;20054;-47
2022/11/11 02:01:47;;;;;;;16.60;9.30;;;11.50;99.90;;;;;;5009059;28;20145;-48
2022/11/11 02:07:01;;;;;;;19.52;9.10;;;13.30;99.90;;;;;;5006582;28;20411;-46
2022/11/11 02:09:27;;;;;;;16.52;8.95;;;11.30;99.90;;;;;;5004223;28;20493;-46
2022/11/11 02:14:47;;;;;;;20.85;9.68;;;11.40;99.90;;;;;;5005972;28;20054;-51
2022/11/11 02:17:15;;;;;;;18.70;9.77;;;11.20;99.90;;;;;;5007786;28;20140;-48
2022/11/11 02:19:52;;;;;;;15.68;9.95;;;11.30;99.90;;;;;;5003923;28;20043;-49
2022/11/11 02:22:26;;;;;;;19.95;9.30;;;11.30;99.90;;;;;;5006902;28;20433;-46
2022/11/11 02:24:54;;;;;;;18.75;10.13;;;11.30;99.90;;;;;;5004583;28;20138;-47
2022/11/11 02:27:22;;;;;;;22.55;10.27;;;11.30;99.90;;;;;;5005569;28;20374;-46
2022/11/11 02:29:51;;;;;;;18.58;9.80;;;11.40;99.90;;;;;;5004033;28;20038;-49
2022/11/11 02:32:17;;;;;;;22.33;9.90;;;11.60;99.90;;;;;;5004048;28;20037;-49
2022/11/11 02:34:43;;;;;;;17.55;11.20;;;11.10;99.90;;;;;;5005997;28;20049;-48
2022/11/11 02:37:09;;;;;;;22.00;11.32;;;12.40;99.90;;;;;;5007074;28;20045;-48
2022/11/11 02:39:42;;;;;;;18.05;11.48;;;11.20;99.90;;;;;;5002517;28;20308;-49
2022/11/11 02:42:09;;;;;;;27.58;11.77;;;11.30;99.90;;;;;;5005411;28;20073;-46
2022/11/11 02:44:38;;;;;;;20.75;12.10;;;12.40;99.90;;;;;;5004363;28;20052;-48
2022/11/11 02:47:04;;;;;;;17.30;11.20;;;11.10;99.90;;;;;;5008900;28;20110;-47
2022/11/11 02:49:30;;;;;;;19.45;12.00;;;11.10;99.90;;;;;;5006724;28;20495;-46
2022/11/11 02:51:56;;;;;;;19.58;12.95;;;11.20;99.90;;;;;;5006786;28;20052;-50
2022/11/11 02:54:22;;;;;;;19.33;12.75;;;11.80;99.90;;;;;;5005973;28;20115;-48
2022/11/11 02:57:06;;;;;;;21.90;12.60;;;10.90;99.90;;;;;;5008069;28;20037;-49
2022/11/11 02:59:31;;;;;;;23.80;12.80;;;11.00;99.90;;;;;;5003991;28;20042;-48
2022/11/11 03:01:57;;;;;;;20.38;12.95;;;11.10;99.90;;;;;;5006582;28;20089;-48
2022/11/11 03:04:23;;;;;;;27.02;13.98;;;11.80;99.90;;;;;;5008174;28;20161;-52
2022/11/11 03:06:49;;;;;;;26.20;13.75;;;11.20;99.90;;;;;;5005480;28;20045;-46
2022/11/11 03:09:14;;;;;;;22.77;14.30;;;11.00;99.90;;;;;;5006190;28;20412;-50
2022/11/11 03:11:40;;;;;;;23.77;15.20;;;11.10;99.90;;;;;;5006403;28;20068;-51
2022/11/11 03:14:07;;;;;;;21.92;14.30;;;11.00;99.90;;;;;;5003237;28;20050;-47
2022/11/11 03:19:17;;;;;;;23.95;15.65;;;10.80;99.90;;;;;;5002094;28;20034;-47
2022/11/11 03:21:43;;;;;;;22.70;15.98;;;11.00;99.90;;;;;;5005840;28;20421;-47
2022/11/11 03:24:09;;;;;;;25.38;16.80;;;12.30;99.90;;;;;;5006110;28;20083;-47
2022/11/11 03:26:35;;;;;;;26.88;15.98;;;10.70;99.90;;;;;;5002195;28;20513;-47
2022/11/11 03:29:01;;;;;;;26.10;16.38;;;12.20;99.90;;;;;;5006406;28;20041;-50
2022/11/11 03:31:27;;;;;;;27.40;16.85;;;10.70;99.90;;;;;;5005790;28;20041;-47
2022/11/11 03:33:52;;;;;;;27.35;16.02;;;12.30;99.90;;;;;;5004572;28;20038;-49
2022/11/11 03:36:18;;;;;;;27.50;16.98;;;10.70;99.90;;;;;;5004633;28;20162;-50
2022/11/11 03:38:44;;;;;;;28.25;16.95;;;10.90;99.90;;;;;;5004927;28;20037;-47
2022/11/11 03:41:10;;;;;;;24.10;17.77;;;12.90;99.90;;;;;;5003189;28;20056;-46
2022/11/11 03:43:35;;;;;;;26.70;17.48;;;11.00;99.90;;;;;;5002864;28;20049;-47
2022/11/11 03:46:03;;;;;;;24.30;17.02;;;10.80;99.90;;;;;;5007617;28;20580;-46
2022/11/11 03:48:31;;;;;;;28.75;17.20;;;10.80;99.90;;;;;;5006300;28;20133;-47
2022/11/11 03:50:57;;;;;;;30.88;18.05;;;11.70;99.90;;;;;;5002997;28;20333;-51
2022/11/11 03:53:23;;;;;;;28.40;18.42;;;10.80;99.90;;;;;;5002048;28;20053;-48
2022/11/11 03:55:50;;;;;;;32.85;18.25;;;11.40;99.90;;;;;;5003360;28;20044;-47
2022/11/11 03:58:16;;;;;;;29.23;18.70;;;10.80;99.90;;;;;;5003201;28;20042;-48
2022/11/11 04:00:43;;;;;;;26.55;18.38;;;11.90;99.90;;;;;;5001432;28;20508;-50
2022/11/11 04:11:30;;;;;;;28.13;19.48;;;10.80;99.90;;;;;;5002220;28;23182;-48
2022/11/11 04:16:46;;;;;;;30.08;19.23;;;10.80;99.90;;;;;;5004334;28;20045;-49
2022/11/11 04:21:56;;;;;;;29.58;19.98;;;10.70;99.90;;;;;;5002895;28;20452;-47
2022/11/11 04:27:09;;;;;;;28.98;20.33;;;12.10;99.90;;;;;;5004510;28;21356;-46
2022/11/11 04:29:35;;;;;;;29.20;18.58;;;11.80;99.90;;;;;;5006041;28;20052;-47
2022/11/11 04:34:58;;;;;;;32.38;20.17;;;10.60;99.90;;;;;;5002304;28;20049;-47
2022/11/11 04:37:26;;;;;;;26.23;19.38;;;11.10;99.90;;;;;;5004866;28;20038;-47
2022/11/11 04:42:38;;;;;;;28.38;19.90;;;10.70;99.90;;;;;;4999859;28;20045;-47
2022/11/11 04:48:12;;;;;;;33.88;21.58;;;10.50;99.90;;;;;;4999652;28;20045;-48
2022/11/11 04:50:42;;;;;;;30.10;21.73;;;9.50;99.90;;;;;;5002951;28;20069;-50
2022/11/11 04:53:11;;;;;;;30.15;20.60;;;10.60;99.90;;;;;;5004054;28;20041;-50
2022/11/11 04:58:23;;;;;;;31.05;22.60;;;11.90;99.90;;;;;;5004059;28;20057;-51
2022/11/11 05:00:49;;;;;;;33.38;22.40;;;12.50;99.90;;;;;;5003814;28;20038;-47
2022/11/11 05:03:22;;;;;;;29.65;21.55;;;10.60;99.90;;;;;;5006292;28;20041;-47
2022/11/11 05:08:56;;;;;;;28.02;21.27;;;10.60;99.90;;;;;;4998672;28;20045;-48
2022/11/11 05:11:27;;;;;;;33.15;21.65;;;11.70;99.90;;;;;;5003543;28;20091;-47
2022/11/11 05:22:31;;;;;;;33.10;22.58;;;10.60;99.90;;;;;;5005328;28;20122;-49
2022/11/11 05:27:42;;;;;;;32.38;23.00;;;10.80;99.90;;;;;;5001722;28;20666;-47
2022/11/11 05:30:10;;;;;;;31.70;22.85;;;11.20;99.90;;;;;;5004671;28;20056;-50
2022/11/11 05:32:36;;;;;;;31.55;22.65;;;10.30;99.90;;;;;;5006197;28;20045;-49
2022/11/11 05:35:03;;;;;;;36.22;23.45;;;12.50;99.90;;;;;;5008147;28;20076;-50
2022/11/11 05:37:29;;;;;;;34.97;24.27;;;10.20;99.90;;;;;;5009672;28;20080;-46
2022/11/11 05:39:55;;;;;;;37.33;23.90;;;10.20;99.90;;;;;;5007505;28;20128;-47
2022/11/11 05:42:21;;;;;;;37.78;24.60;;;10.20;99.90;;;;;;5007551;28;20336;-48
2022/11/11 05:44:47;;;;;;;31.92;23.08;;;10.30;99.90;;;;;;5007357;28;20041;-47
2022/11/11 05:47:12;;;;;;;39.20;24.25;;;10.20;99.90;;;;;;5003871;28;20048;-47
2022/11/11 05:49:38;;;;;;;35.85;25.00;;;11.10;99.90;;;;;;5004139;28;20607;-48
2022/11/11 05:52:05;;;;;;;36.60;24.77;;;10.20;99.90;;;;;;5006883;28;20538;-49
2022/11/11 05:54:31;;;;;;;38.55;24.80;;;12.10;99.90;;;;;;5006008;28;20358;-46
2022/11/11 05:56:56;;;;;;;34.03;23.73;;;12.20;99.90;;;;;;5007165;28;20037;-46
2022/11/11 05:59:22;;;;;;;35.88;25.52;;;10.10;99.90;;;;;;5003812;28;20414;-49
2022/11/11 06:01:48;;;;;;;33.33;24.20;;;10.20;99.90;;;;;;5006591;28;20325;-45
2022/11/11 06:04:14;;;;;;;35.03;22.63;;;11.50;99.90;;;;;;5004731;28;20119;-47
2022/11/11 06:06:39;;;;;;;36.72;23.10;;;8.20;99.90;;;;;;5004949;28;20875;-46
2022/11/11 06:09:05;;;;;;;35.75;22.92;;;10.40;99.90;;;;;;5004939;28;20074;-47
2022/11/11 06:11:31;;;;;;;33.28;22.73;;;10.70;99.90;;;;;;5007616;28;20046;-49
2022/11/11 06:13:57;;;;;;;32.38;22.02;;;10.40;99.90;;;;;;5005839;28;20352;-48
2022/11/11 06:16:23;;;;;;;37.60;22.95;;;10.60;99.90;;;;;;5007663;28;20060;-48
2022/11/11 06:18:50;;;;;;;33.35;21.17;;;10.70;99.90;;;;;;5006941;28;20120;-47
2022/11/11 06:21:16;;;;;;;38.05;20.95;;;10.40;99.90;;;;;;5005043;28;20038;-46
2022/11/11 06:23:42;;;;;;;32.00;22.33;;;10.60;99.90;;;;;;5006628;28;20061;-50
2022/11/11 06:26:13;;;;;;;32.42;20.55;;;10.80;99.90;;;;;;5004627;28;20042;-51
2022/11/11 06:28:49;;;;;;;31.83;21.88;;;10.60;99.90;;;;;;5005711;28;20053;-48
2022/11/11 06:31:18;;;;;;;32.33;21.65;;;10.80;99.90;;;;;;5002301;28;20056;-47
2022/11/11 06:33:44;;;;;;;32.53;22.52;;;10.80;99.90;;;;;;5005672;28;20060;-47
2022/11/11 06:36:12;;;;;;;36.58;22.55;;;11.50;99.90;;;;;;5006425;28;20041;-49
2022/11/11 06:38:39;;;;;;;33.15;22.83;;;10.80;99.90;;;;;;5007023;28;20041;-51
2022/11/11 06:41:05;;;;;;;38.85;24.20;;;10.80;99.90;;;;;;5009625;28;20250;-45
2022/11/11 06:43:31;;;;;;;34.55;22.88;;;10.70;99.90;;;;;;5005789;28;20080;-49
2022/11/11 06:45:57;;;;;;;35.10;23.42;;;10.70;99.90;;;;;;5005870;28;21105;-46
2022/11/11 06:48:24;;;;;;;33.00;22.63;;;10.70;99.90;;;;;;5006580;28;20042;-45
2022/11/11 06:50:51;;;;;;;34.88;23.33;;;10.90;99.90;;;;;;5006682;28;20752;-46
2022/11/11 06:53:18;;;;;;;33.25;23.15;;;11.20;99.90;;;;;;5007171;28;20180;-48
2022/11/11 06:55:44;;;;;;;35.05;22.85;;;10.70;99.90;;;;;;5004986;28;20327;-47
2022/11/11 06:58:16;;;;;;;32.42;23.55;;;10.70;99.90;;;;;;5007879;28;20553;-47
2022/11/11 07:00:43;;;;;;;34.03;24.30;;;10.80;99.90;;;;;;5004340;28;20037;-51
2022/11/11 07:03:11;;;;;;;36.45;24.48;;;10.80;99.90;;;;;;5003594;28;20038;-47
2022/11/11 07:05:37;;;;;;;35.17;24.25;;;12.20;99.90;;;;;;5004633;28;20095;-47
2022/11/11 07:08:14;;;;;;;39.33;23.30;;;11.40;99.90;;;;;;5006688;28;20175;-47
2022/11/11 07:10:43;;;;;;;37.22;25.02;;;12.50;99.90;;;;;;5006598;28;20299;-47
2022/11/11 07:13:09;;;;;;;31.05;22.67;;;10.60;99.90;;;;;;5004380;28;20540;-47
2022/11/11 07:15:37;;;;;;;34.80;24.95;;;11.70;99.90;;;;;;5006278;28;20526;-50
2022/11/11 07:18:03;;;;;;;34.17;23.83;;;11.90;99.90;;;;;;5003793;28;20593;-48
2022/11/11 07:20:29;;;;;;;36.15;26.23;;;10.60;99.90;;;;;;5005523;28;20120;-48
2022/11/11 07:22:55;;;;;;;38.90;25.92;;;10.70;99.90;;;;;;5003248;28;20075;-47
2022/11/11 07:25:21;;;;;;;36.92;24.67;;;10.50;99.90;;;;;;5006096;28;20058;-47
2022/11/11 07:27:46;;;;;;;36.72;25.02;;;10.70;99.90;;;;;;5006626;28;20044;-48
2022/11/11 07:30:12;;;;;;;36.95;24.90;;;10.60;99.90;;;;;;5006069;28;20041;-51
2022/11/11 07:32:49;;;;;;;34.90;23.73;;;10.90;99.90;;;;;;5003049;28;20123;-50
2022/11/11 07:35:15;;;;;;;33.28;24.33;;;10.70;99.90;;;;;;5005629;28;20049;-47
2022/11/11 07:37:41;;;;;;;35.30;24.23;;;10.50;99.90;;;;;;5003212;28;20107;-46
2022/11/11 07:40:09;;;;;;;33.60;25.08;;;11.70;99.90;;;;;;5004733;28;20042;-50
2022/11/11 07:42:36;;;;;;;36.15;24.88;;;10.70;99.90;;;;;;5008369;28;20041;-57
2022/11/11 07:45:02;;;;;;;36.10;24.83;;;10.90;99.90;;;;;;5002690;28;20038;-50
2022/11/11 07:47:28;;;;;;;34.70;23.15;;;10.60;99.90;;;;;;5002993;28;20041;-48
2022/11/11 07:49:54;;;;;;;31.75;22.95;;;10.70;99.90;;;;;;5007963;28;20037;-50
2022/11/11 07:52:22;;;;;;;32.38;23.10;;;10.60;99.90;;;;;;5005451;28;20041;-47
2022/11/11 07:54:48;;;;;;;35.92;24.52;;;10.90;99.90;;;;;;5008536;28;20668;-48
2022/11/11 07:57:14;;;;;;;30.33;22.52;;;10.80;99.90;;;;;;5003721;28;20069;-49
2022/11/11 07:59:40;;;;;;;32.80;24.05;;;10.80;99.90;;;;;;5007764;28;20183;-49
2022/11/11 08:02:12;;;;;;;35.00;23.08;;;10.70;99.90;;;;;;5004772;28;20117;-49
2022/11/11 08:04:37;;;;;;;32.42;24.23;;;10.70;99.90;;;;;;5003833;28;20045;-51
2022/11/11 08:07:03;;;;;;;35.33;23.33;;;12.90;99.90;;;;;;5004284;28;20049;-46
2022/11/11 08:09:29;;;;;;;34.20;23.38;;;10.90;99.90;;;;;;5001162;28;20432;-46
2022/11/11 08:14:39;;;;;;;34.50;24.13;;;11.00;99.90;;;;;;5002519;28;20041;-49
2022/11/11 08:17:05;;;;;;;31.10;23.58;;;10.80;99.90;;;;;;5004290;28;20042;-51
2022/11/11 08:19:30;;;;;;;34.13;24.35;;;10.90;99.90;;;;;;5002831;28;20038;-49
2022/11/11 08:21:56;;;;;;;32.38;23.50;;;10.70;99.90;;;;;;5003835;28;20053;-48
2022/11/11 08:24:22;;;;;;;34.03;24.90;;;10.80;99.90;;;;;;5002939;28;20057;-50
2022/11/11 08:26:48;;;;;;;34.30;23.50;;;10.60;99.90;;;;;;5000911;28;20053;-46
2022/11/11 08:29:14;;;;;;;35.88;24.33;;;11.60;99.90;;;;;;5003293;28;20048;-47
2022/11/11 08:31:39;;;;;;;38.90;24.45;;;10.70;99.90;;;;;;5000543;28;20059;-51
2022/11/11 08:34:05;;;;;;;35.40;24.92;;;10.70;99.90;;;;;;5005434;28;20041;-49
2022/11/11 08:36:31;;;;;;;34.20;24.55;;;10.90;99.90;;;;;;5003984;28;20046;-49
2022/11/11 08:38:57;;;;;;;32.35;23.58;;;10.60;99.90;;;;;;5002285;28;20110;-48
2022/11/11 08:41:22;;;;;;;38.65;23.33;;;10.90;99.90;;;;;;4987670;28;20113;-48
2022/11/11 08:43:52;;;;;;;36.05;24.85;;;12.70;99.90;;;;;;5004076;28;20128;-47
2022/11/11 08:46:18;;;;;;;39.92;24.05;;;10.60;99.90;;;;;;5006429;28;20041;-48
2022/11/11 08:48:44;;;;;;;32.58;23.42;;;10.80;99.90;;;;;;5002136;28;20048;-50
2022/11/11 08:51:10;;;;;;;41.13;25.63;;;10.60;99.90;;;;;;5005646;28;20041;-46
2022/11/11 08:53:35;;;;;;;33.78;24.38;;;10.90;99.90;;;;;;5001878;28;20491;-47
2022/11/11 08:56:02;;;;;;;32.75;23.85;;;10.80;99.90;;;;;;5004200;28;20037;-48
2022/11/11 08:58:28;;;;;;;34.45;23.13;;;10.70;99.90;;;;;;5005344;28;20045;-47
2022/11/11 09:00:54;;;;;;;33.90;24.30;;;10.70;99.90;;;;;;5016159;28;20045;-50
2022/11/11 09:03:20;;;;;;;32.45;23.75;;;12.10;99.90;;;;;;5003414;28;20096;-46
2022/11/11 09:05:46;;;;;;;32.95;23.15;;;12.90;99.90;;;;;;5002502;28;20037;-47
2022/11/11 09:08:12;;;;;;;34.40;24.05;;;10.80;99.90;;;;;;5006578;28;20046;-50
2022/11/11 09:10:38;;;;;;;32.88;23.10;;;10.80;99.90;;;;;;5003828;28;20136;-51
2022/11/11 09:13:04;;;;;;;29.83;22.13;;;11.30;99.90;;;;;;5004121;28;20293;-50
2022/11/11 09:15:31;;;;;;;31.27;23.20;;;10.70;99.90;;;;;;5003290;28;20270;-46
2022/11/11 09:17:56;;;;;;;34.33;22.73;;;10.90;99.90;;;;;;5002085;28;20073;-47
2022/11/11 09:20:23;;;;;;;32.63;23.30;;;10.90;99.90;;;;;;5005344;28;20588;-51
2022/11/11 09:22:49;;;;;;;29.92;22.30;;;12.40;99.90;;;;;;5005423;28;20547;-47
2022/11/11 09:25:15;;;;;;;33.67;23.77;;;10.70;99.90;;;;;;5004533;28;20111;-46
2022/11/11 09:27:41;;;;;;;35.38;21.90;;;10.80;99.90;;;;;;5006366;28;22314;-48
2022/11/11 09:30:08;;;;;;;29.33;22.60;;;10.70;99.90;;;;;;5004686;28;20034;-49
2022/11/11 09:32:35;;;;;;;33.47;23.30;;;10.80;99.90;;;;;;5007315;28;20556;-46
2022/11/11 09:35:02;;;;;;;32.83;22.92;;;10.70;99.90;;;;;;5004407;28;20053;-47
2022/11/11 09:37:27;;;;;;;36.38;24.15;;;10.70;99.90;;;;;;5001409;28;20033;-51
2022/11/11 09:39:55;;;;;;;34.95;23.05;;;10.70;99.90;;;;;;5004461;28;20376;-50
2022/11/11 09:42:36;;;;;;;35.85;23.60;;;12.20;99.90;;;;;;5005131;28;20482;-48
2022/11/11 09:45:19;;;;;;;30.73;23.10;;;10.80;99.90;;;;;;5002873;28;20068;-50
2022/11/11 09:47:57;;;;;;;39.47;24.90;;;10.50;99.90;;;;;;5001493;28;20090;-46
2022/11/11 09:50:25;;;;;;;37.08;24.13;;;10.60;99.90;;;;;;5002113;28;20113;-47
2022/11/11 09:53:00;;;;;;;29.02;22.17;;;10.60;99.90;;;;;;5001110;28;20043;-49
2022/11/11 09:55:55;;;;;;;34.92;22.80;;;10.80;99.90;;;;;;5003762;28;20081;-47
2022/11/11 09:58:40;;;;;;;33.00;23.10;;;10.60;99.90;;;;;;5001585;28;20165;-46
2022/11/11 10:01:13;;;;;;;36.80;22.92;;;11.90;99.90;;;;;;5000546;28;20056;-46
2022/11/11 10:03:44;;;;;;;35.53;23.83;;;10.50;99.90;;;;;;5004849;28;20110;-47
2022/11/11 10:06:19;;;;;;;36.10;25.25;;;12.30;99.90;;;;;;5003327;28;20049;-46
2022/11/11 10:09:15;;;;;;;31.05;22.67;;;11.00;99.90;;;;;;5003092;28;20065;-47
2022/11/11 10:11:59;;;;;;;39.28;21.95;;;10.50;99.90;;;;;;5002900;28;20542;-46
2022/11/11 10:14:32;;;;;;;33.40;21.58;;;10.50;99.90;;;;;;5002486;28;20133;-47
2022/11/11 10:17:03;;;;;;;31.77;22.13;;;10.80;99.90;;;;;;4999742;28;20043;-47
2022/11/11 10:19:31;;;;;;;32.53;21.35;;;10.60;99.90;;;;;;5000799;28;20052;-48
2022/11/11 10:22:00;;;;;;;29.83;21.63;;;12.80;99.90;;;;;;5006710;28;20083;-47
2022/11/11 10:24:34;;;;;;;32.53;21.83;;;10.90;99.90;;;;;;5001500;28;20053;-48
2022/11/11 10:27:06;;;;;;;35.78;22.38;;;10.80;99.90;;;;;;5005104;28;20091;-48
2022/11/11 10:29:44;;;;;;;;;;;10.80;99.90;;;;;;5004711;28;20038;-48
2022/11/11 10:32:24;;;;;;;30.67;21.25;;;10.70;99.90;;;;;;5002805;28;19928;-49
2022/11/11 10:34:50;;;;;;;27.80;21.35;;;10.90;99.90;;;;;;5003900;28;20287;-51
2022/11/11 10:37:21;;;;;;;29.77;21.42;;;10.80;99.90;;;;;;5007656;28;20042;-46
2022/11/11 10:40:05;;;;;;;28.50;21.23;;;10.90;99.90;;;;;;5006226;28;20073;-47
2022/11/11 10:42:31;;;;;;;29.30;20.55;;;10.90;99.90;;;;;;5007401;28;20360;-48
2022/11/11 10:45:01;;;;;;;29.50;21.88;;;10.70;99.90;;;;;;5005012;28;20499;-49
2022/11/11 10:47:33;;;;;;;28.00;21.52;;;12.00;99.90;;;;;;5006755;28;20057;-48
2022/11/11 10:50:03;;;;;;;29.77;21.33;;;10.80;99.90;;;;;;5009072;28;20076;-46
2022/11/11 10:52:53;;;;;;;28.00;20.23;;;10.80;99.90;;;;;;5004847;28;20042;-47
2022/11/11 10:55:29;;;;;;;27.67;19.77;;;10.90;99.90;;;;;;4998062;28;20378;-46
2022/11/11 10:58:36;;;;;;;28.95;19.95;;;11.00;99.90;;;;;;5003351;28;20045;-45
2022/11/11 11:01:06;;;;;;;29.13;19.13;;;10.90;99.90;;;;;;4993960;28;20053;-50
2022/11/11 11:03:39;;;;;;;24.42;18.33;;;10.90;99.90;;;;;;5003315;28;20059;-50
2022/11/11 11:06:17;;;;;;;24.20;18.52;;;11.10;99.90;;;;;;4993694;28;20419;-49
2022/11/11 11:08:54;;;;;;;27.90;19.00;;;11.30;99.90;;;;;;4999004;28;20071;-48
2022/11/11 11:11:34;;;;;;;25.73;19.25;;;12.10;99.90;;;;;;4994349;28;20041;-51
2022/11/11 11:14:05;;;;;;;25.42;18.67;;;11.10;99.90;;;;;;4999347;28;20191;-46
2022/11/11 11:16:38;;;;;;;28.40;20.83;;;11.00;99.90;;;;;;4995569;28;20046;-46
2022/11/11 11:19:14;;;;;;;26.50;18.30;;;11.00;99.90;;;;;;5001640;28;20033;-47
2022/11/11 11:21:56;;;;;;;32.15;20.60;;;12.80;99.90;;;;;;4994698;28;20085;-46
2022/11/11 11:24:30;;;;;;;26.48;17.90;;;10.90;99.90;;;;;;5000516;28;20061;-48
2022/11/11 11:26:58;;;;;;;25.05;18.95;;;11.00;99.90;;;;;;5004001;28;20037;-46
2022/11/11 11:29:25;;;;;;;24.30;17.05;;;11.10;99.90;;;;;;5004415;28;20046;-49
2022/11/11 11:31:51;;;;;;;21.30;17.52;;;11.10;99.90;;;;;;5002886;28;20041;-46
2022/11/11 11:34:17;;;;;;;23.55;17.42;;;11.00;99.90;;;;;;5006159;28;20037;-46
2022/11/11 11:36:43;;;;;;;23.98;18.60;;;12.10;99.90;;;;;;5003183;28;20298;-47
2022/11/11 11:39:09;;;;;;;27.25;18.85;;;11.20;99.90;;;;;;5003719;28;20465;-47
2022/11/11 11:41:42;;;;;;;25.08;18.20;;;12.40;99.90;;;;;;5005954;28;20046;-47
2022/11/11 11:44:28;;;;;;;28.58;18.23;;;11.10;99.90;;;;;;5003639;28;21658;-47
2022/11/11 11:47:04;;;;;;;24.92;16.63;;;11.20;99.90;;;;;;5003065;28;20440;-50
2022/11/11 11:49:41;;;;;;;23.58;17.65;;;11.10;99.90;;;;;;4994093;28;20044;-47
2022/11/11 11:52:31;;;;;;;24.20;17.73;;;11.20;99.90;;;;;;5002179;28;20384;-46
2022/11/11 11:55:34;;;;;;;22.08;16.98;;;11.10;99.90;;;;;;5004479;28;20054;-50
2022/11/11 11:58:20;;;;;;;21.00;16.92;;;10.90;99.90;;;;;;5004940;28;20102;-46
2022/11/11 12:01:10;;;;;;;21.23;16.52;;;12.20;99.90;;;;;;5002069;28;20587;-47
2022/11/11 12:04:20;;;;;;;19.17;15.50;;;11.10;99.90;;;;;;5004137;28;20052;-50
2022/11/11 12:07:03;;;;;;;20.67;15.93;;;11.10;99.90;;;;;;5017986;28;20509;-45
2022/11/11 12:09:41;;;;;;;19.50;15.15;;;11.00;99.90;;;;;;5005655;28;20045;-47
2022/11/11 12:12:07;;;;;;;21.92;16.67;;;11.10;99.90;;;;;;4994555;28;20115;-50
2022/11/11 12:14:37;;;;;;;21.67;16.83;;;11.10;99.90;;;;;;5004809;28;20046;-46
2022/11/11 12:17:18;;;;;;;19.05;15.57;;;11.00;99.90;;;;;;4998553;28;20049;-46
2022/11/11 12:19:53;;;;;;;21.65;16.02;;;11.10;99.90;;;;;;5001502;28;20038;-46
2022/11/11 12:22:51;;;;;;;20.00;15.65;;;11.20;99.90;;;;;;5002850;28;20144;-47
2022/11/11 12:25:33;;;;;;;21.52;15.73;;;11.10;99.90;;;;;;5003035;28;20072;-46
2022/11/11 12:28:35;;;;;;;22.35;16.15;;;11.00;99.90;;;;;;4999336;28;20098;-46
2022/11/11 12:31:29;;;;;;;20.23;16.00;;;11.10;99.90;;;;;;4994551;28;20157;-45
2022/11/11 12:34:27;;;;;;;22.98;16.05;;;11.00;99.90;;;;;;5005570;28;20202;-48
2022/11/11 12:37:13;;;;;;;21.40;15.52;;;11.10;99.90;;;;;;5001700;28;20042;-47
2022/11/11 12:39:54;;;;;;;20.65;15.82;;;11.10;99.90;;;;;;5002416;28;20038;-51
2022/11/11 12:42:54;;;;;;;19.98;14.65;;;11.10;99.90;;;;;;4996700;28;20077;-46
2022/11/11 12:45:30;;;;;;;19.52;15.02;;;11.10;99.90;;;;;;4999523;28;20092;-49
2022/11/11 12:48:02;;;;;;;21.35;15.15;;;12.40;99.90;;;;;;4993448;28;20054;-46
2022/11/11 12:50:40;;;;;;;22.13;15.82;;;11.20;99.90;;;;;;4993250;28;20299;-48
2022/11/11 12:53:27;;;;;;;22.50;16.27;;;11.10;99.90;;;;;;4996870;28;20052;-48
2022/11/11 12:56:16;;;;;;;19.80;15.07;;;11.10;99.90;;;;;;5002449;28;20038;-48
2022/11/11 12:58:59;;;;;;;24.73;17.15;;;12.70;99.90;;;;;;5002406;28;20132;-50
2022/11/11 13:01:37;;;;;;;23.02;17.98;;;11.10;99.90;;;;;;4997985;28;20183;-47
2022/11/11 13:04:45;;;;;;;29.45;18.42;;;11.00;99.90;;;;;;5003456;28;20041;-48
2022/11/11 13:07:46;;;;;;;24.75;18.63;;;10.80;99.90;;;;;;5000648;28;20050;-47
2022/11/11 13:10:55;;;;;;;28.15;19.30;;;10.80;99.90;;;;;;5001808;28;20049;-47
2022/11/11 13:13:46;;;;;;;26.10;18.38;;;10.80;99.90;;;;;;5002939;28;20053;-47
2022/11/11 13:16:11;;;;;;;25.98;18.77;;;12.70;99.90;;;;;;4998662;28;20052;-47
2022/11/11 13:18:50;;;;;;;26.65;19.13;;;10.80;99.90;;;;;;4998380;28;20038;-47
2022/11/11 13:21:22;;;;;;;28.58;18.90;;;10.50;99.90;;;;;;5004502;28;20033;-48
2022/11/11 13:23:47;;;;;;;24.65;18.73;;;10.70;99.90;;;;;;4995209;28;20189;-47
2022/11/11 13:26:35;;;;;;;25.08;18.30;;;10.60;99.90;;;;;;5002070;28;20279;-48
2022/11/11 13:29:33;;;;;;;25.08;18.33;;;10.70;99.90;;;;;;4989579;28;20473;-48
2022/11/11 13:32:01;;;;;;;26.48;19.50;;;10.80;99.90;;;;;;4973855;28;20104;-46
2022/11/11 13:34:33;;;;;;;25.48;19.10;;;10.80;99.90;;;;;;5001211;28;20684;-46
2022/11/11 13:37:02;;;;;;;28.15;19.30;;;12.90;99.90;;;;;;5000608;28;20542;-47
2022/11/11 13:39:39;;;;;;;23.98;18.27;;;10.80;99.90;;;;;;5000667;28;20128;-49
2022/11/11 13:42:09;;;;;;;24.35;18.05;;;10.80;99.90;;;;;;5004481;28;20041;-47
2022/11/11 13:44:46;;;;;;;24.67;18.30;;;12.30;99.90;;;;;;5001082;28;20045;-47
2022/11/11 13:47:23;;;;;;;27.40;20.15;;;11.40;99.90;;;;;;4999262;28;20046;-50
2022/11/11 13:49:58;;;;;;;27.65;19.63;;;10.90;99.90;;;;;;5003079;28;20045;-49
2022/11/11 13:52:36;;;;;;;27.88;19.73;;;11.00;99.90;;;;;;4998749;28;20123;-46
2022/11/11 13:55:42;;;;;;;24.75;18.63;;;10.90;99.90;;;;;;5003150;28;20043;-46
2022/11/11 13:58:34;;;;;;;26.90;18.63;;;12.30;99.90;;;;;;5005142;28;20160;-47